sensor_id;sensor_type;location;lat;lon;timestamp;P1;durP1;ratioP1;P2;durP2;ratioP2
11016;SDS011;54687;50.800;6.772;2022-11-20T00:01:22;21.27;;;19.08;;
11016;SDS011;54687;50.800;6.772;2022-11-20T00:03:50;20.48;;;18.38;;
11016;SDS011;54687;50.800;6.772;2022-11-20T00:06:18;21.45;;;19.30;;
11016;SDS011;54687;50.800;6.772;2022-11-20T00:08:47;20.85;;;18.85;;
11016;SDS011;54687;50.800;6.772;2022-11-20T00:11:15;21.05;;;18.83;;
11016;SDS011;54687;50.800;6.772;2022-11-20T00:13:43;23.17;;;20.77;;
11016;SDS011;54687;50.800;6.772;2022-11-20T00:16:11;20.98;;;18.98;;
11016;SDS011;54687;50.800;6.772;2022-11-20T00:18:39;21.95;;;19.85;;
11016;SDS011;54687;50.800;6.772;2022-11-20T00:21:09;23.80;;;21.38;;
11016;SDS011;54687;50.800;6.772;2022-11-20T00:23:37;21.00;;;18.80;;
11016;SDS011;54687;50.800;6.772;2022-11-20T00:26:05;23.08;;;20.80;;
11016;SDS011;54687;50.800;6.772;2022-11-20T00:28:33;24.45;;;21.98;;
11016;SDS011;54687;50.800;6.772;2022-11-20T00:31:01;22.02;;;19.88;;
11016;SDS011;54687;50.800;6.772;2022-11-20T00:33:30;21.23;;;19.05;;
11016;SDS011;54687;50.800;6.772;2022-11-20T00:35:59;22.40;;;20.20;;
11016;SDS011;54687;50.800;6.772;2022-11-20T00:38:27;24.30;;;21.52;;
11016;SDS011;54687;50.800;6.772;2022-11-20T00:40:54;23.17;;;20.85;;
11016;SDS011;54687;50.800;6.772;2022-11-20T00:43:23;23.77;;;21.13;;
11016;SDS011;54687;50.800;6.772;2022-11-20T00:45:50;24.02;;;21.60;;
11016;SDS011;54687;50.800;6.772;2022-11-20T00:48:22;23.65;;;21.23;;
11016;SDS011;54687;50.800;6.772;2022-11-20T00:50:49;22.25;;;20.05;;
11016;SDS011;54687;50.800;6.772;2022-11-20T00:53:15;23.05;;;20.65;;
11016;SDS011;54687;50.800;6.772;2022-11-20T00:55:42;22.48;;;20.27;;
11016;SDS011;54687;50.800;6.772;2022-11-20T00:58:09;22.95;;;20.58;;
11016;SDS011;54687;50.800;6.772;2022-11-20T01:00:37;22.27;;;19.98;;
11016;SDS011;54687;50.800;6.772;2022-11-20T01:03:03;22.17;;;19.88;;
11016;SDS011;54687;50.800;6.772;2022-11-20T01:05:33;25.35;;;22.17;;
11016;SDS011;54687;50.800;6.772;2022-11-20T01:08:00;23.23;;;20.83;;
11016;SDS011;54687;50.800;6.772;2022-11-20T01:10:27;23.00;;;20.75;;
11016;SDS011;54687;50.800;6.772;2022-11-20T01:12:53;22.23;;;20.02;;
11016;SDS011;54687;50.800;6.772;2022-11-20T01:15:34;24.13;;;21.55;;
11016;SDS011;54687;50.800;6.772;2022-11-20T01:18:03;23.85;;;21.52;;
11016;SDS011;54687;50.800;6.772;2022-11-20T01:20:30;22.50;;;20.30;;
11016;SDS011;54687;50.800;6.772;2022-11-20T01:23:01;23.67;;;21.27;;
11016;SDS011;54687;50.800;6.772;2022-11-20T01:25:27;22.88;;;20.48;;
11016;SDS011;54687;50.800;6.772;2022-11-20T01:27:54;25.27;;;22.63;;
11016;SDS011;54687;50.800;6.772;2022-11-20T01:30:21;25.17;;;22.67;;
11016;SDS011;54687;50.800;6.772;2022-11-20T01:32:47;25.85;;;23.17;;
11016;SDS011;54687;50.800;6.772;2022-11-20T01:35:15;24.63;;;22.23;;
11016;SDS011;54687;50.800;6.772;2022-11-20T01:37:42;25.90;;;23.20;;
11016;SDS011;54687;50.800;6.772;2022-11-20T01:40:09;25.73;;;22.95;;
11016;SDS011;54687;50.800;6.772;2022-11-20T01:42:37;23.80;;;21.35;;
11016;SDS011;54687;50.800;6.772;2022-11-20T01:48:29;22.15;;;19.85;;
11016;SDS011;54687;50.800;6.772;2022-11-20T01:51:01;25.25;;;22.60;;
11016;SDS011;54687;50.800;6.772;2022-11-20T01:53:30;21.65;;;19.45;;
11016;SDS011;54687;50.800;6.772;2022-11-20T01:56:01;21.63;;;19.45;;
11016;SDS011;54687;50.800;6.772;2022-11-20T01:58:32;21.83;;;19.58;;
11016;SDS011;54687;50.800;6.772;2022-11-20T02:01:02;21.88;;;19.67;;
11016;SDS011;54687;50.800;6.772;2022-11-20T02:03:30;21.45;;;19.23;;
11016;SDS011;54687;50.800;6.772;2022-11-20T02:06:01;21.77;;;19.52;;
11016;SDS011;54687;50.800;6.772;2022-11-20T02:08:34;21.52;;;19.23;;
11016;SDS011;54687;50.800;6.772;2022-11-20T02:11:02;22.48;;;20.27;;
11016;SDS011;54687;50.800;6.772;2022-11-20T02:13:29;21.17;;;18.98;;
11016;SDS011;54687;50.800;6.772;2022-11-20T02:16:11;21.48;;;19.27;;
11016;SDS011;54687;50.800;6.772;2022-11-20T02:18:44;21.40;;;19.30;;
11016;SDS011;54687;50.800;6.772;2022-11-20T02:21:14;21.95;;;19.67;;
11016;SDS011;54687;50.800;6.772;2022-11-20T02:24:01;21.25;;;19.10;;
11016;SDS011;54687;50.800;6.772;2022-11-20T02:26:30;20.58;;;18.48;;
11016;SDS011;54687;50.800;6.772;2022-11-20T02:28:59;22.48;;;20.17;;
11016;SDS011;54687;50.800;6.772;2022-11-20T02:31:27;22.30;;;20.05;;
11016;SDS011;54687;50.800;6.772;2022-11-20T02:33:54;22.92;;;20.63;;
11016;SDS011;54687;50.800;6.772;2022-11-20T02:36:22;22.40;;;20.10;;
11016;SDS011;54687;50.800;6.772;2022-11-20T02:38:50;22.65;;;20.38;;
11016;SDS011;54687;50.800;6.772;2022-11-20T02:41:18;21.95;;;19.77;;
11016;SDS011;54687;50.800;6.772;2022-11-20T02:43:44;21.73;;;19.58;;
11016;SDS011;54687;50.800;6.772;2022-11-20T02:46:11;20.35;;;18.27;;
11016;SDS011;54687;50.800;6.772;2022-11-20T02:48:38;21.35;;;19.08;;
11016;SDS011;54687;50.800;6.772;2022-11-20T02:51:04;21.30;;;19.05;;
11016;SDS011;54687;50.800;6.772;2022-11-20T02:53:31;20.83;;;18.35;;
11016;SDS011;54687;50.800;6.772;2022-11-20T02:55:58;22.00;;;19.70;;
11016;SDS011;54687;50.800;6.772;2022-11-20T02:58:26;21.77;;;19.58;;
11016;SDS011;54687;50.800;6.772;2022-11-20T03:00:53;21.60;;;19.50;;
11016;SDS011;54687;50.800;6.772;2022-11-20T03:03:19;22.88;;;20.58;;
11016;SDS011;54687;50.800;6.772;2022-11-20T03:05:46;21.95;;;19.65;;
11016;SDS011;54687;50.800;6.772;2022-11-20T03:08:13;22.50;;;20.30;;
11016;SDS011;54687;50.800;6.772;2022-11-20T03:10:39;22.73;;;20.42;;
11016;SDS011;54687;50.800;6.772;2022-11-20T03:13:06;23.50;;;21.13;;
11016;SDS011;54687;50.800;6.772;2022-11-20T03:15:35;22.65;;;20.35;;
11016;SDS011;54687;50.800;6.772;2022-11-20T03:18:02;23.35;;;20.90;;
11016;SDS011;54687;50.800;6.772;2022-11-20T03:20:28;24.17;;;21.67;;
11016;SDS011;54687;50.800;6.772;2022-11-20T03:22:55;25.20;;;22.55;;
11016;SDS011;54687;50.800;6.772;2022-11-20T03:25:22;23.73;;;21.23;;
11016;SDS011;54687;50.800;6.772;2022-11-20T03:27:49;22.73;;;20.45;;
11016;SDS011;54687;50.800;6.772;2022-11-20T03:30:16;22.05;;;19.85;;
11016;SDS011;54687;50.800;6.772;2022-11-20T03:32:44;21.20;;;18.85;;
11016;SDS011;54687;50.800;6.772;2022-11-20T03:35:11;21.85;;;19.65;;
11016;SDS011;54687;50.800;6.772;2022-11-20T03:37:37;21.10;;;18.80;;
11016;SDS011;54687;50.800;6.772;2022-11-20T03:40:05;20.92;;;18.85;;
11016;SDS011;54687;50.800;6.772;2022-11-20T03:42:33;22.27;;;19.90;;
11016;SDS011;54687;50.800;6.772;2022-11-20T03:45:12;22.85;;;19.30;;
11016;SDS011;54687;50.800;6.772;2022-11-20T03:47:39;21.45;;;19.25;;
11016;SDS011;54687;50.800;6.772;2022-11-20T03:50:08;20.90;;;18.70;;
11016;SDS011;54687;50.800;6.772;2022-11-20T03:52:35;20.65;;;18.55;;
11016;SDS011;54687;50.800;6.772;2022-11-20T03:55:02;20.38;;;18.35;;
11016;SDS011;54687;50.800;6.772;2022-11-20T03:57:30;21.05;;;18.95;;
11016;SDS011;54687;50.800;6.772;2022-11-20T03:59:57;21.60;;;19.33;;
11016;SDS011;54687;50.800;6.772;2022-11-20T04:02:23;21.02;;;19.02;;
11016;SDS011;54687;50.800;6.772;2022-11-20T04:04:50;22.00;;;19.80;;
11016;SDS011;54687;50.800;6.772;2022-11-20T04:07:18;26.15;;;21.20;;
11016;SDS011;54687;50.800;6.772;2022-11-20T04:09:44;21.92;;;19.45;;
11016;SDS011;54687;50.800;6.772;2022-11-20T04:12:11;19.25;;;17.35;;
11016;SDS011;54687;50.800;6.772;2022-11-20T04:14:37;20.75;;;18.65;;
11016;SDS011;54687;50.800;6.772;2022-11-20T04:17:04;20.95;;;18.85;;
11016;SDS011;54687;50.800;6.772;2022-11-20T04:19:31;18.77;;;16.88;;
11016;SDS011;54687;50.800;6.772;2022-11-20T04:21:57;19.15;;;17.25;;
11016;SDS011;54687;50.800;6.772;2022-11-20T04:24:25;19.02;;;17.08;;
11016;SDS011;54687;50.800;6.772;2022-11-20T04:26:52;20.48;;;18.40;;
11016;SDS011;54687;50.800;6.772;2022-11-20T04:29:19;21.45;;;19.27;;
11016;SDS011;54687;50.800;6.772;2022-11-20T04:31:46;21.25;;;19.15;;
11016;SDS011;54687;50.800;6.772;2022-11-20T04:34:12;21.27;;;19.13;;
11016;SDS011;54687;50.800;6.772;2022-11-20T04:36:39;21.23;;;19.00;;
11016;SDS011;54687;50.800;6.772;2022-11-20T04:39:06;20.98;;;18.98;;
11016;SDS011;54687;50.800;6.772;2022-11-20T04:41:35;21.25;;;19.05;;
11016;SDS011;54687;50.800;6.772;2022-11-20T04:44:03;21.98;;;19.63;;
11016;SDS011;54687;50.800;6.772;2022-11-20T04:46:32;21.25;;;19.00;;
11016;SDS011;54687;50.800;6.772;2022-11-20T04:48:59;21.77;;;19.58;;
11016;SDS011;54687;50.800;6.772;2022-11-20T04:51:26;21.58;;;19.38;;
11016;SDS011;54687;50.800;6.772;2022-11-20T04:53:53;22.00;;;19.70;;
11016;SDS011;54687;50.800;6.772;2022-11-20T04:56:20;22.25;;;20.05;;
11016;SDS011;54687;50.800;6.772;2022-11-20T04:58:48;21.50;;;19.20;;
11016;SDS011;54687;50.800;6.772;2022-11-20T05:01:16;22.77;;;20.48;;
11016;SDS011;54687;50.800;6.772;2022-11-20T05:03:44;19.40;;;17.50;;
11016;SDS011;54687;50.800;6.772;2022-11-20T05:06:11;20.38;;;18.27;;
11016;SDS011;54687;50.800;6.772;2022-11-20T05:08:39;22.58;;;20.17;;
11016;SDS011;54687;50.800;6.772;2022-11-20T05:11:07;22.83;;;20.52;;
11016;SDS011;54687;50.800;6.772;2022-11-20T05:13:35;22.00;;;19.80;;
11016;SDS011;54687;50.800;6.772;2022-11-20T05:16:04;22.95;;;20.55;;
11016;SDS011;54687;50.800;6.772;2022-11-20T05:18:32;23.30;;;21.00;;
11016;SDS011;54687;50.800;6.772;2022-11-20T05:20:59;24.52;;;22.02;;
11016;SDS011;54687;50.800;6.772;2022-11-20T05:23:26;23.50;;;21.00;;
11016;SDS011;54687;50.800;6.772;2022-11-20T05:25:53;23.33;;;20.85;;
11016;SDS011;54687;50.800;6.772;2022-11-20T05:28:20;25.38;;;22.73;;
11016;SDS011;54687;50.800;6.772;2022-11-20T05:30:47;25.75;;;23.13;;
11016;SDS011;54687;50.800;6.772;2022-11-20T05:33:15;25.25;;;22.58;;
11016;SDS011;54687;50.800;6.772;2022-11-20T05:35:43;24.75;;;22.15;;
11016;SDS011;54687;50.800;6.772;2022-11-20T05:38:09;23.17;;;20.77;;
11016;SDS011;54687;50.800;6.772;2022-11-20T05:40:36;24.92;;;22.27;;
11016;SDS011;54687;50.800;6.772;2022-11-20T05:43:03;23.77;;;20.83;;
11016;SDS011;54687;50.800;6.772;2022-11-20T05:45:29;22.88;;;20.50;;
11016;SDS011;54687;50.800;6.772;2022-11-20T05:47:57;24.70;;;22.20;;
11016;SDS011;54687;50.800;6.772;2022-11-20T05:50:26;24.65;;;22.05;;
11016;SDS011;54687;50.800;6.772;2022-11-20T05:52:53;24.63;;;22.10;;
11016;SDS011;54687;50.800;6.772;2022-11-20T05:55:19;24.63;;;22.10;;
11016;SDS011;54687;50.800;6.772;2022-11-20T05:57:46;23.50;;;21.13;;
11016;SDS011;54687;50.800;6.772;2022-11-20T06:00:13;22.60;;;20.27;;
11016;SDS011;54687;50.800;6.772;2022-11-20T06:02:40;22.75;;;20.45;;
11016;SDS011;54687;50.800;6.772;2022-11-20T06:05:07;23.45;;;20.98;;
11016;SDS011;54687;50.800;6.772;2022-11-20T06:07:36;24.92;;;22.30;;
11016;SDS011;54687;50.800;6.772;2022-11-20T06:10:03;24.80;;;22.20;;
11016;SDS011;54687;50.800;6.772;2022-11-20T06:12:31;23.73;;;21.17;;
11016;SDS011;54687;50.800;6.772;2022-11-20T06:14:57;22.55;;;20.25;;
11016;SDS011;54687;50.800;6.772;2022-11-20T06:17:24;24.63;;;22.13;;
11016;SDS011;54687;50.800;6.772;2022-11-20T06:19:50;23.57;;;21.07;;
11016;SDS011;54687;50.800;6.772;2022-11-20T06:22:17;25.90;;;23.20;;
11016;SDS011;54687;50.800;6.772;2022-11-20T06:24:45;24.30;;;21.63;;
11016;SDS011;54687;50.800;6.772;2022-11-20T06:27:12;26.40;;;23.60;;
11016;SDS011;54687;50.800;6.772;2022-11-20T06:29:38;23.65;;;21.17;;
11016;SDS011;54687;50.800;6.772;2022-11-20T06:32:05;25.58;;;22.88;;
11016;SDS011;54687;50.800;6.772;2022-11-20T06:34:32;27.98;;;25.00;;
11016;SDS011;54687;50.800;6.772;2022-11-20T06:36:58;24.75;;;22.25;;
11016;SDS011;54687;50.800;6.772;2022-11-20T06:39:25;25.05;;;22.45;;
11016;SDS011;54687;50.800;6.772;2022-11-20T06:41:53;20.58;;;18.38;;
11016;SDS011;54687;50.800;6.772;2022-11-20T06:44:20;23.65;;;21.23;;
11016;SDS011;54687;50.800;6.772;2022-11-20T06:46:46;22.83;;;20.08;;
11016;SDS011;54687;50.800;6.772;2022-11-20T06:49:13;22.85;;;20.48;;
11016;SDS011;54687;50.800;6.772;2022-11-20T06:51:40;22.58;;;20.23;;
11016;SDS011;54687;50.800;6.772;2022-11-20T06:54:07;22.52;;;20.13;;
11016;SDS011;54687;50.800;6.772;2022-11-20T06:56:33;23.88;;;21.42;;
11016;SDS011;54687;50.800;6.772;2022-11-20T06:59:04;22.13;;;19.88;;
11016;SDS011;54687;50.800;6.772;2022-11-20T07:01:31;23.70;;;21.27;;
11016;SDS011;54687;50.800;6.772;2022-11-20T07:03:58;23.75;;;20.35;;
11016;SDS011;54687;50.800;6.772;2022-11-20T07:06:25;23.50;;;20.77;;
11016;SDS011;54687;50.800;6.772;2022-11-20T07:08:51;23.50;;;21.10;;
11016;SDS011;54687;50.800;6.772;2022-11-20T07:11:18;23.00;;;20.52;;
11016;SDS011;54687;50.800;6.772;2022-11-20T07:13:45;23.58;;;21.08;;
11016;SDS011;54687;50.800;6.772;2022-11-20T07:16:13;21.20;;;19.00;;
11016;SDS011;54687;50.800;6.772;2022-11-20T07:18:39;22.33;;;19.92;;
11016;SDS011;54687;50.800;6.772;2022-11-20T07:21:07;24.23;;;21.42;;
11016;SDS011;54687;50.800;6.772;2022-11-20T07:23:35;26.70;;;23.90;;
11016;SDS011;54687;50.800;6.772;2022-11-20T07:26:03;25.58;;;22.80;;
11016;SDS011;54687;50.800;6.772;2022-11-20T07:28:30;25.40;;;22.70;;
11016;SDS011;54687;50.800;6.772;2022-11-20T07:30:57;24.33;;;21.83;;
11016;SDS011;54687;50.800;6.772;2022-11-20T07:33:25;26.25;;;23.48;;
11016;SDS011;54687;50.800;6.772;2022-11-20T07:35:51;24.77;;;22.13;;
11016;SDS011;54687;50.800;6.772;2022-11-20T07:38:18;24.55;;;21.98;;
11016;SDS011;54687;50.800;6.772;2022-11-20T07:40:45;24.63;;;22.08;;
11016;SDS011;54687;50.800;6.772;2022-11-20T07:43:12;23.50;;;21.00;;
11016;SDS011;54687;50.800;6.772;2022-11-20T07:45:38;26.05;;;23.00;;
11016;SDS011;54687;50.800;6.772;2022-11-20T07:48:05;28.90;;;24.92;;
11016;SDS011;54687;50.800;6.772;2022-11-20T07:50:33;28.17;;;25.15;;
11016;SDS011;54687;50.800;6.772;2022-11-20T07:53:00;26.33;;;23.52;;
11016;SDS011;54687;50.800;6.772;2022-11-20T07:55:28;28.83;;;24.73;;
11016;SDS011;54687;50.800;6.772;2022-11-20T07:57:55;23.65;;;21.23;;
11016;SDS011;54687;50.800;6.772;2022-11-20T08:00:22;23.70;;;21.20;;
11016;SDS011;54687;50.800;6.772;2022-11-20T08:02:49;25.65;;;22.98;;
11016;SDS011;54687;50.800;6.772;2022-11-20T08:05:16;26.05;;;23.13;;
11016;SDS011;54687;50.800;6.772;2022-11-20T08:07:44;26.25;;;22.42;;
11016;SDS011;54687;50.800;6.772;2022-11-20T08:10:11;27.35;;;24.13;;
11016;SDS011;54687;50.800;6.772;2022-11-20T08:12:43;27.52;;;23.95;;
11016;SDS011;54687;50.800;6.772;2022-11-20T08:15:28;26.35;;;23.50;;
11016;SDS011;54687;50.800;6.772;2022-11-20T08:17:58;27.08;;;23.88;;
11016;SDS011;54687;50.800;6.772;2022-11-20T08:20:26;28.17;;;24.27;;
11016;SDS011;54687;50.800;6.772;2022-11-20T08:22:58;29.48;;;25.52;;
11016;SDS011;54687;50.800;6.772;2022-11-20T08:25:26;30.02;;;26.33;;
11016;SDS011;54687;50.800;6.772;2022-11-20T08:27:53;30.95;;;25.98;;
11016;SDS011;54687;50.800;6.772;2022-11-20T08:30:20;28.75;;;25.33;;
11016;SDS011;54687;50.800;6.772;2022-11-20T08:32:46;30.30;;;26.88;;
11016;SDS011;54687;50.800;6.772;2022-11-20T08:35:13;33.10;;;27.27;;
11016;SDS011;54687;50.800;6.772;2022-11-20T08:37:40;29.15;;;25.63;;
11016;SDS011;54687;50.800;6.772;2022-11-20T08:40:09;29.83;;;25.88;;
11016;SDS011;54687;50.800;6.772;2022-11-20T08:42:45;28.67;;;24.90;;
11016;SDS011;54687;50.800;6.772;2022-11-20T08:45:12;27.90;;;24.92;;
11016;SDS011;54687;50.800;6.772;2022-11-20T08:47:38;26.85;;;23.80;;
11016;SDS011;54687;50.800;6.772;2022-11-20T08:50:06;26.27;;;23.45;;
11016;SDS011;54687;50.800;6.772;2022-11-20T08:52:33;25.17;;;22.30;;
11016;SDS011;54687;50.800;6.772;2022-11-20T08:55:00;25.40;;;22.70;;
11016;SDS011;54687;50.800;6.772;2022-11-20T08:57:28;24.08;;;21.52;;
11016;SDS011;54687;50.800;6.772;2022-11-20T08:59:57;24.50;;;21.52;;
11016;SDS011;54687;50.800;6.772;2022-11-20T09:02:24;25.83;;;23.10;;
11016;SDS011;54687;50.800;6.772;2022-11-20T09:04:51;26.38;;;23.58;;
11016;SDS011;54687;50.800;6.772;2022-11-20T09:07:18;24.98;;;22.08;;
11016;SDS011;54687;50.800;6.772;2022-11-20T09:09:45;24.63;;;22.08;;
11016;SDS011;54687;50.800;6.772;2022-11-20T09:12:11;26.73;;;22.92;;
11016;SDS011;54687;50.800;6.772;2022-11-20T09:14:40;25.15;;;22.50;;
11016;SDS011;54687;50.800;6.772;2022-11-20T09:17:06;24.42;;;21.83;;
11016;SDS011;54687;50.800;6.772;2022-11-20T09:19:33;22.65;;;20.25;;
11016;SDS011;54687;50.800;6.772;2022-11-20T09:22:00;26.83;;;22.38;;
11016;SDS011;54687;50.800;6.772;2022-11-20T09:24:27;24.05;;;21.08;;
11016;SDS011;54687;50.800;6.772;2022-11-20T09:26:54;24.63;;;21.90;;
11016;SDS011;54687;50.800;6.772;2022-11-20T09:29:20;22.55;;;20.10;;
11016;SDS011;54687;50.800;6.772;2022-11-20T09:31:49;23.73;;;20.83;;
11016;SDS011;54687;50.800;6.772;2022-11-20T09:34:15;23.80;;;21.23;;
11016;SDS011;54687;50.800;6.772;2022-11-20T09:36:42;24.17;;;21.65;;
11016;SDS011;54687;50.800;6.772;2022-11-20T09:39:20;22.67;;;19.75;;
11016;SDS011;54687;50.800;6.772;2022-11-20T09:42:00;23.23;;;20.70;;
11016;SDS011;54687;50.800;6.772;2022-11-20T09:44:48;23.38;;;20.98;;
11016;SDS011;54687;50.800;6.772;2022-11-20T09:47:26;20.50;;;18.33;;
11016;SDS011;54687;50.800;6.772;2022-11-20T09:50:06;22.42;;;20.02;;
11016;SDS011;54687;50.800;6.772;2022-11-20T09:52:47;22.58;;;20.23;;
11016;SDS011;54687;50.800;6.772;2022-11-20T09:55:22;21.23;;;19.02;;
11016;SDS011;54687;50.800;6.772;2022-11-20T09:57:51;20.65;;;18.40;;
11016;SDS011;54687;50.800;6.772;2022-11-20T10:00:18;21.30;;;17.73;;
11016;SDS011;54687;50.800;6.772;2022-11-20T10:02:48;20.80;;;18.60;;
11016;SDS011;54687;50.800;6.772;2022-11-20T10:05:22;20.52;;;18.33;;
11016;SDS011;54687;50.800;6.772;2022-11-20T10:07:54;22.58;;;19.35;;
11016;SDS011;54687;50.800;6.772;2022-11-20T10:10:29;21.92;;;19.55;;
11016;SDS011;54687;50.800;6.772;2022-11-20T10:13:11;21.08;;;18.88;;
11016;SDS011;54687;50.800;6.772;2022-11-20T10:15:49;23.40;;;20.13;;
11016;SDS011;54687;50.800;6.772;2022-11-20T10:18:27;21.83;;;19.50;;
11016;SDS011;54687;50.800;6.772;2022-11-20T10:21:03;21.63;;;19.40;;
11016;SDS011;54687;50.800;6.772;2022-11-20T10:23:44;27.67;;;23.10;;
11016;SDS011;54687;50.800;6.772;2022-11-20T10:26:25;25.02;;;20.88;;
11016;SDS011;54687;50.800;6.772;2022-11-20T10:29:07;25.27;;;20.70;;
11016;SDS011;54687;50.800;6.772;2022-11-20T10:31:38;22.52;;;19.15;;
11016;SDS011;54687;50.800;6.772;2022-11-20T10:34:14;24.00;;;21.00;;
11016;SDS011;54687;50.800;6.772;2022-11-20T10:36:47;24.13;;;21.52;;
11016;SDS011;54687;50.800;6.772;2022-11-20T10:39:21;31.08;;;23.95;;
11016;SDS011;54687;50.800;6.772;2022-11-20T10:41:55;25.33;;;21.80;;
11016;SDS011;54687;50.800;6.772;2022-11-20T10:44:26;24.52;;;20.05;;
11016;SDS011;54687;50.800;6.772;2022-11-20T10:47:12;18.98;;;16.98;;
11016;SDS011;54687;50.800;6.772;2022-11-20T10:49:42;23.80;;;20.55;;
11016;SDS011;54687;50.800;6.772;2022-11-20T10:52:13;22.17;;;19.63;;
11016;SDS011;54687;50.800;6.772;2022-11-20T10:54:50;22.02;;;18.30;;
11016;SDS011;54687;50.800;6.772;2022-11-20T10:57:25;20.42;;;18.23;;
11016;SDS011;54687;50.800;6.772;2022-11-20T11:00:04;23.80;;;19.63;;
11016;SDS011;54687;50.800;6.772;2022-11-20T11:02:34;21.60;;;19.27;;
11016;SDS011;54687;50.800;6.772;2022-11-20T11:05:10;23.67;;;20.08;;
11016;SDS011;54687;50.800;6.772;2022-11-20T11:07:53;21.35;;;18.83;;
11016;SDS011;54687;50.800;6.772;2022-11-20T11:10:23;20.48;;;18.48;;
11016;SDS011;54687;50.800;6.772;2022-11-20T11:12:53;23.60;;;20.50;;
11016;SDS011;54687;50.800;6.772;2022-11-20T11:15:27;26.75;;;21.60;;
11016;SDS011;54687;50.800;6.772;2022-11-20T11:17:55;24.20;;;19.45;;
11016;SDS011;54687;50.800;6.772;2022-11-20T11:20:25;21.75;;;19.25;;
11016;SDS011;54687;50.800;6.772;2022-11-20T11:22:53;21.50;;;18.20;;
11016;SDS011;54687;50.800;6.772;2022-11-20T11:25:25;18.88;;;16.73;;
11016;SDS011;54687;50.800;6.772;2022-11-20T11:27:55;20.08;;;17.92;;
11016;SDS011;54687;50.800;6.772;2022-11-20T11:30:24;19.45;;;16.80;;
11016;SDS011;54687;50.800;6.772;2022-11-20T11:33:02;20.95;;;17.67;;
11016;SDS011;54687;50.800;6.772;2022-11-20T11:35:33;18.20;;;16.23;;
11016;SDS011;54687;50.800;6.772;2022-11-20T11:38:03;18.90;;;16.90;;
11016;SDS011;54687;50.800;6.772;2022-11-20T11:40:33;19.05;;;17.10;;
11016;SDS011;54687;50.800;6.772;2022-11-20T11:43:02;20.67;;;17.88;;
11016;SDS011;54687;50.800;6.772;2022-11-20T11:45:52;23.73;;;20.40;;
11016;SDS011;54687;50.800;6.772;2022-11-20T11:48:20;22.00;;;19.48;;
11016;SDS011;54687;50.800;6.772;2022-11-20T11:50:49;22.08;;;19.70;;
11016;SDS011;54687;50.800;6.772;2022-11-20T11:53:17;24.02;;;20.45;;
11016;SDS011;54687;50.800;6.772;2022-11-20T11:55:46;23.60;;;20.30;;
11016;SDS011;54687;50.800;6.772;2022-11-20T11:58:20;24.20;;;21.58;;
11016;SDS011;54687;50.800;6.772;2022-11-20T12:01:01;22.15;;;19.45;;
11016;SDS011;54687;50.800;6.772;2022-11-20T12:03:34;21.40;;;18.88;;
11016;SDS011;54687;50.800;6.772;2022-11-20T12:06:05;23.92;;;18.58;;
11016;SDS011;54687;50.800;6.772;2022-11-20T12:08:38;23.00;;;20.40;;
11016;SDS011;54687;50.800;6.772;2022-11-20T12:11:11;21.40;;;19.10;;
11016;SDS011;54687;50.800;6.772;2022-11-20T12:13:44;21.67;;;18.20;;
11016;SDS011;54687;50.800;6.772;2022-11-20T12:16:15;20.02;;;17.90;;
11016;SDS011;54687;50.800;6.772;2022-11-20T12:18:45;20.75;;;18.52;;
11016;SDS011;54687;50.800;6.772;2022-11-20T12:21:23;18.98;;;17.02;;
11016;SDS011;54687;50.800;6.772;2022-11-20T12:24:01;20.23;;;17.65;;
11016;SDS011;54687;50.800;6.772;2022-11-20T12:26:45;18.50;;;16.45;;
11016;SDS011;54687;50.800;6.772;2022-11-20T12:29:25;18.50;;;16.48;;
11016;SDS011;54687;50.800;6.772;2022-11-20T12:32:03;19.73;;;17.63;;
11016;SDS011;54687;50.800;6.772;2022-11-20T12:34:47;19.23;;;16.83;;
11016;SDS011;54687;50.800;6.772;2022-11-20T12:37:32;18.52;;;16.52;;
11016;SDS011;54687;50.800;6.772;2022-11-20T12:40:09;18.48;;;16.45;;
11016;SDS011;54687;50.800;6.772;2022-11-20T12:42:52;17.70;;;15.88;;
11016;SDS011;54687;50.800;6.772;2022-11-20T12:45:59;17.83;;;15.93;;
11016;SDS011;54687;50.800;6.772;2022-11-20T12:48:38;18.33;;;16.42;;
11016;SDS011;54687;50.800;6.772;2022-11-20T12:54:32;17.20;;;15.43;;
11016;SDS011;54687;50.800;6.772;2022-11-20T12:57:18;19.05;;;16.50;;
11016;SDS011;54687;50.800;6.772;2022-11-20T13:02:42;18.17;;;16.08;;
11016;SDS011;54687;50.800;6.772;2022-11-20T13:05:24;17.63;;;15.77;;
11016;SDS011;54687;50.800;6.772;2022-11-20T13:07:57;18.17;;;16.13;;
11016;SDS011;54687;50.800;6.772;2022-11-20T13:10:38;20.55;;;17.73;;
11016;SDS011;54687;50.800;6.772;2022-11-20T13:13:10;17.73;;;15.38;;
11016;SDS011;54687;50.800;6.772;2022-11-20T13:15:45;19.23;;;16.88;;
11016;SDS011;54687;50.800;6.772;2022-11-20T13:18:17;17.70;;;15.75;;
11016;SDS011;54687;50.800;6.772;2022-11-20T13:20:45;18.88;;;16.98;;
11016;SDS011;54687;50.800;6.772;2022-11-20T13:23:22;18.77;;;15.65;;
11016;SDS011;54687;50.800;6.772;2022-11-20T13:25:51;18.35;;;16.45;;
11016;SDS011;54687;50.800;6.772;2022-11-20T13:28:29;18.88;;;15.88;;
11016;SDS011;54687;50.800;6.772;2022-11-20T13:30:57;17.73;;;15.93;;
11016;SDS011;54687;50.800;6.772;2022-11-20T13:33:29;18.30;;;16.40;;
11016;SDS011;54687;50.800;6.772;2022-11-20T13:35:59;17.45;;;15.57;;
11016;SDS011;54687;50.800;6.772;2022-11-20T13:38:27;17.75;;;15.85;;
11016;SDS011;54687;50.800;6.772;2022-11-20T13:40:57;19.38;;;17.35;;
11016;SDS011;54687;50.800;6.772;2022-11-20T13:43:44;18.17;;;16.33;;
11016;SDS011;54687;50.800;6.772;2022-11-20T13:46:14;17.77;;;15.40;;
11016;SDS011;54687;50.800;6.772;2022-11-20T13:48:41;18.33;;;16.42;;
11016;SDS011;54687;50.800;6.772;2022-11-20T13:51:12;17.60;;;15.80;;
11016;SDS011;54687;50.800;6.772;2022-11-20T13:53:59;18.08;;;16.15;;
11016;SDS011;54687;50.800;6.772;2022-11-20T13:56:37;17.73;;;15.93;;
11016;SDS011;54687;50.800;6.772;2022-11-20T13:59:17;18.48;;;16.60;;
11016;SDS011;54687;50.800;6.772;2022-11-20T14:02:00;17.23;;;15.43;;
11016;SDS011;54687;50.800;6.772;2022-11-20T14:04:30;16.92;;;15.15;;
11016;SDS011;54687;50.800;6.772;2022-11-20T14:07:01;18.25;;;16.10;;
11016;SDS011;54687;50.800;6.772;2022-11-20T14:09:32;18.48;;;16.55;;
11016;SDS011;54687;50.800;6.772;2022-11-20T14:12:02;18.30;;;16.35;;
11016;SDS011;54687;50.800;6.772;2022-11-20T14:14:30;20.65;;;17.27;;
11016;SDS011;54687;50.800;6.772;2022-11-20T14:17:05;18.35;;;16.38;;
11016;SDS011;54687;50.800;6.772;2022-11-20T14:19:32;17.65;;;15.85;;
11016;SDS011;54687;50.800;6.772;2022-11-20T14:22:16;19.33;;;17.02;;
11016;SDS011;54687;50.800;6.772;2022-11-20T14:24:45;17.58;;;15.48;;
11016;SDS011;54687;50.800;6.772;2022-11-20T14:27:15;18.40;;;15.95;;
11016;SDS011;54687;50.800;6.772;2022-11-20T14:29:44;17.83;;;15.98;;
11016;SDS011;54687;50.800;6.772;2022-11-20T14:32:14;17.85;;;15.95;;
11016;SDS011;54687;50.800;6.772;2022-11-20T14:34:43;19.55;;;17.45;;
11016;SDS011;54687;50.800;6.772;2022-11-20T14:37:12;19.73;;;16.67;;
11016;SDS011;54687;50.800;6.772;2022-11-20T14:39:47;18.08;;;16.17;;
11016;SDS011;54687;50.800;6.772;2022-11-20T14:42:19;21.40;;;17.88;;
11016;SDS011;54687;50.800;6.772;2022-11-20T14:44:47;19.10;;;16.23;;
11016;SDS011;54687;50.800;6.772;2022-11-20T14:47:17;17.38;;;15.50;;